Time;durP1;ratioP1;P1;durP2;ratioP2;P2;SDS_P1;SDS_P2;PMS_P1;PMS_P2;Temp;Humidity;BMP_temperature;BMP_pressure;BME280_temperature;BME280_humidity;BME280_pressure;Samples;Min_cycle;Max_cycle;Signal;HPM_P1;HPM_P2
2023/12/22 00:00:29;;;;;;;99.50;61.88;;;;;;;;;;5024848;28;20044;-72
2023/12/22 00:02:55;;;;;;;67.03;44.45;;;;;;;;;;5023535;28;20227;-72
2023/12/22 00:05:20;;;;;;;72.70;47.30;;;;;;;;;;5009138;28;20028;-72
2023/12/22 00:07:45;;;;;;;37.92;28.13;;;;;;;;;;5024234;28;20352;-74
2023/12/22 00:10:11;;;;;;;31.98;24.60;;;;;;;;;;5022900;28;20036;-74
2023/12/22 00:12:38;;;;;;;49.53;34.33;;;;;;;;;;5015305;28;20021;-73
2023/12/22 00:15:04;;;;;;;30.30;21.85;;;;;;;;;;5005785;28;20041;-74
2023/12/22 00:17:29;;;;;;;17.55;13.52;;;;;;;;;;5011893;28;20056;-73
2023/12/22 00:19:58;;;;;;;13.50;10.65;;;;;;;;;;5015148;28;20028;-75
2023/12/22 00:22:25;;;;;;;30.95;23.13;;;;;;;;;;5012234;28;20056;-77
2023/12/22 00:24:50;;;;;;;17.77;15.55;;;;;;;;;;5028836;28;20449;-75
2023/12/22 00:27:15;;;;;;;37.13;29.17;;;;;;;;;;5014250;28;20060;-76
2023/12/22 00:29:41;;;;;;;16.40;14.02;;;;;;;;;;5006196;28;20025;-74
2023/12/22 00:32:09;;;;;;;18.45;15.70;;;;;;;;;;5007586;28;20128;-75
2023/12/22 00:34:34;;;;;;;11.23;10.13;;;;;;;;;;5007791;28;20472;-74
2023/12/22 00:37:00;;;;;;;13.82;11.90;;;;;;;;;;5013969;28;20029;-76
2023/12/22 00:39:25;;;;;;;15.18;12.40;;;;;;;;;;5006450;28;20464;-77
2023/12/22 00:41:50;;;;;;;13.05;10.63;;;;;;;;;;5009886;28;20029;-76
2023/12/22 00:44:16;;;;;;;20.75;15.55;;;;;;;;;;5016067;28;20449;-75
2023/12/22 00:46:41;;;;;;;28.30;22.70;;;;;;;;;;5004977;28;20033;-74
2023/12/22 00:49:07;;;;;;;27.33;21.67;;;;;;;;;;5009339;28;20021;-73
2023/12/22 00:51:32;;;;;;;21.83;16.67;;;;;;;;;;5015201;28;20167;-73
2023/12/22 00:53:58;;;;;;;16.80;13.00;;;;;;;;;;5024427;28;20444;-76
2023/12/22 00:56:23;;;;;;;15.85;12.25;;;;;;;;;;5009983;28;20157;-76
2023/12/22 00:58:48;;;;;;;18.15;14.48;;;;;;;;;;5013099;28;20045;-74
2023/12/22 01:01:14;;;;;;;15.23;13.63;;;;;;;;;;5010842;28;20068;-75
2023/12/22 01:03:39;;;;;;;14.75;12.27;;;;;;;;;;5008440;28;20045;-76
2023/12/22 01:06:05;;;;;;;13.82;11.73;;;;;;;;;;5004221;28;20040;-74
2023/12/22 01:08:30;;;;;;;14.23;10.50;;;;;;;;;;5010010;28;20057;-76
2023/12/22 01:10:56;;;;;;;15.30;13.30;;;;;;;;;;5007614;28;20083;-74
2023/12/22 01:13:21;;;;;;;15.77;14.25;;;;;;;;;;5009236;28;20037;-73
2023/12/22 01:15:46;;;;;;;9.07;7.90;;;;;;;;;;5007971;28;20033;-73
2023/12/22 01:18:12;;;;;;;14.80;12.93;;;;;;;;;;5022799;28;20452;-75
2023/12/22 01:20:37;;;;;;;9.38;8.05;;;;;;;;;;5003183;28;20029;-75
2023/12/22 01:23:02;;;;;;;11.88;8.73;;;;;;;;;;5016615;28;20028;-75
2023/12/22 01:25:28;;;;;;;16.17;12.98;;;;;;;;;;5009955;28;20029;-74
2023/12/22 01:27:53;;;;;;;18.98;13.73;;;;;;;;;;5012384;28;20635;-74
2023/12/22 01:30:19;;;;;;;30.23;21.38;;;;;;;;;;5007317;28;20036;-76
2023/12/22 01:32:44;;;;;;;37.97;27.80;;;;;;;;;;5021551;28;20437;-74
2023/12/22 01:35:10;;;;;;;42.38;29.45;;;;;;;;;;5009722;28;20029;-73
2023/12/22 01:37:38;;;;;;;20.27;16.90;;;;;;;;;;5011426;28;20378;-73
2023/12/22 01:40:03;;;;;;;15.77;12.65;;;;;;;;;;5003163;28;20327;-73
2023/12/22 01:42:29;;;;;;;13.18;10.70;;;;;;;;;;5008414;28;20044;-75
2023/12/22 01:44:54;;;;;;;14.88;12.02;;;;;;;;;;5007808;28;20045;-74
2023/12/22 01:47:20;;;;;;;17.58;13.73;;;;;;;;;;5009492;28;20451;-76
2023/12/22 01:49:45;;;;;;;15.32;11.98;;;;;;;;;;5007661;28;20364;-73
2023/12/22 01:52:11;;;;;;;19.45;15.02;;;;;;;;;;5008592;28;20072;-75
2023/12/22 01:54:36;;;;;;;15.57;12.40;;;;;;;;;;5005499;28;20048;-73
2023/12/22 01:57:02;;;;;;;15.02;11.75;;;;;;;;;;5007533;28;20086;-74
2023/12/22 01:59:30;;;;;;;16.25;12.20;;;;;;;;;;5021919;28;20017;-73
2023/12/22 02:01:56;;;;;;;11.80;9.40;;;;;;;;;;5013771;28;20339;-73
2023/12/22 02:04:22;;;;;;;13.32;11.35;;;;;;;;;;5018326;28;21056;-73
2023/12/22 02:06:47;;;;;;;15.93;12.95;;;;;;;;;;5009898;28;20376;-74
2023/12/22 02:09:12;;;;;;;20.48;15.43;;;;;;;;;;5012220;28;20049;-74
2023/12/22 02:11:38;;;;;;;18.58;15.38;;;;;;;;;;5001766;28;20033;-73
2023/12/22 02:14:04;;;;;;;15.02;12.48;;;;;;;;;;5010677;28;20036;-78
2023/12/22 02:16:44;;;;;;;24.45;17.98;;;;;;;;;;5002290;28;20025;-78
2023/12/22 02:19:19;;;;;;;24.23;16.30;;;;;;;;;;5009720;28;20163;-76
2023/12/22 02:22:00;;;;;;;26.27;20.30;;;;;;;;;;5029490;28;20100;-76
2023/12/22 02:24:26;;;;;;;22.98;17.00;;;;;;;;;;5028032;28;20108;-77
2023/12/22 02:26:53;;;;;;;16.30;13.02;;;;;;;;;;5022080;28;20111;-77
2023/12/22 02:29:19;;;;;;;21.23;15.95;;;;;;;;;;5010616;28;20361;-76
2023/12/22 02:31:48;;;;;;;12.20;9.68;;;;;;;;;;5003754;28;20044;-76
2023/12/22 02:34:18;;;;;;;10.95;9.20;;;;;;;;;;5008885;28;20033;-76
2023/12/22 02:36:43;;;;;;;13.43;10.25;;;;;;;;;;5006648;28;20045;-76
2023/12/22 02:39:10;;;;;;;15.48;13.27;;;;;;;;;;5007463;28;20029;-77
2023/12/22 02:41:36;;;;;;;12.25;9.95;;;;;;;;;;5012939;28;20124;-75
2023/12/22 02:44:01;;;;;;;12.15;9.23;;;;;;;;;;5011600;28;20120;-75
2023/12/22 02:46:27;;;;;;;9.63;8.23;;;;;;;;;;5005317;28;20075;-75
2023/12/22 02:48:52;;;;;;;8.77;6.90;;;;;;;;;;5006850;28;20029;-75
2023/12/22 02:51:17;;;;;;;10.55;6.35;;;;;;;;;;5013278;28;20029;-75
2023/12/22 02:53:43;;;;;;;11.00;7.43;;;;;;;;;;5005959;28;20036;-75
2023/12/22 02:56:08;;;;;;;7.85;6.22;;;;;;;;;;5006919;28;20451;-75
2023/12/22 02:58:33;;;;;;;10.13;6.93;;;;;;;;;;5006461;28;20103;-76
2023/12/22 03:00:59;;;;;;;9.80;6.68;;;;;;;;;;5006508;28;20144;-76
2023/12/22 03:03:24;;;;;;;7.88;5.80;;;;;;;;;;5006976;28;20816;-75
2023/12/22 03:05:50;;;;;;;9.23;6.15;;;;;;;;;;5009640;28;20056;-76
2023/12/22 03:08:15;;;;;;;9.93;6.78;;;;;;;;;;5024394;28;20427;-76
2023/12/22 03:10:40;;;;;;;8.63;6.88;;;;;;;;;;5011995;28;20021;-76
2023/12/22 03:13:06;;;;;;;10.52;7.20;;;;;;;;;;5010134;28;20049;-77
2023/12/22 03:15:31;;;;;;;10.57;7.60;;;;;;;;;;5011863;28;20076;-76
2023/12/22 03:17:56;;;;;;;11.52;7.20;;;;;;;;;;5007250;28;20392;-74
2023/12/22 03:20:22;;;;;;;9.10;6.15;;;;;;;;;;5023470;28;20091;-76
2023/12/22 03:22:47;;;;;;;10.70;7.90;;;;;;;;;;5028548;28;20457;-76
2023/12/22 03:25:12;;;;;;;9.32;7.78;;;;;;;;;;5025435;28;20071;-75
2023/12/22 03:27:38;;;;;;;10.13;7.50;;;;;;;;;;5024895;28;20107;-75
2023/12/22 03:30:03;;;;;;;11.30;8.32;;;;;;;;;;5025054;28;20111;-76
2023/12/22 03:32:29;;;;;;;7.53;6.03;;;;;;;;;;5012531;28;20022;-76
2023/12/22 03:34:54;;;;;;;9.82;6.70;;;;;;;;;;5011491;28;20096;-76
2023/12/22 03:37:19;;;;;;;21.23;12.88;;;;;;;;;;5012828;28;20025;-74
2023/12/22 03:39:45;;;;;;;14.40;10.40;;;;;;;;;;5012193;28;20036;-75
2023/12/22 03:42:10;;;;;;;17.70;11.77;;;;;;;;;;5018133;28;20380;-74
2023/12/22 03:44:36;;;;;;;10.48;8.35;;;;;;;;;;5011386;28;20083;-78
2023/12/22 03:47:01;;;;;;;11.25;8.70;;;;;;;;;;5009128;28;20037;-78
2023/12/22 03:49:26;;;;;;;7.95;6.10;;;;;;;;;;5011244;28;20040;-76
2023/12/22 03:51:52;;;;;;;11.48;8.60;;;;;;;;;;5024080;28;20032;-76
2023/12/22 03:54:17;;;;;;;8.77;7.07;;;;;;;;;;5011483;28;20454;-76
2023/12/22 03:56:43;;;;;;;7.70;6.80;;;;;;;;;;5023602;28;20029;-75
2023/12/22 03:59:08;;;;;;;8.13;7.05;;;;;;;;;;5024579;28;20044;-75
2023/12/22 04:01:34;;;;;;;7.32;6.32;;;;;;;;;;5010653;28;20035;-76
2023/12/22 04:03:59;;;;;;;7.80;6.93;;;;;;;;;;5024212;28;20036;-75
2023/12/22 04:06:25;;;;;;;6.68;5.97;;;;;;;;;;5024214;28;20337;-77
2023/12/22 04:08:50;;;;;;;9.68;7.97;;;;;;;;;;5009006;28;20053;-75
2023/12/22 04:11:15;;;;;;;9.30;7.68;;;;;;;;;;5011839;28;20025;-75
2023/12/22 04:13:41;;;;;;;7.70;6.88;;;;;;;;;;5004896;28;20075;-76
2023/12/22 04:16:06;;;;;;;9.95;8.02;;;;;;;;;;5011522;28;20040;-75
2023/12/22 04:18:32;;;;;;;9.57;8.57;;;;;;;;;;5003657;28;20064;-76
2023/12/22 04:20:57;;;;;;;8.10;6.90;;;;;;;;;;5015600;28;20025;-75
2023/12/22 04:23:22;;;;;;;12.82;8.55;;;;;;;;;;5024860;28;20402;-77
2023/12/22 04:25:48;;;;;;;8.07;7.28;;;;;;;;;;4998661;28;20036;-76
2023/12/22 04:28:13;;;;;;;11.13;7.85;;;;;;;;;;5020635;28;20036;-76
2023/12/22 04:30:39;;;;;;;9.63;7.88;;;;;;;;;;5022714;28;20044;-76
2023/12/22 04:33:04;;;;;;;8.60;7.20;;;;;;;;;;5023932;28;20456;-75
2023/12/22 04:35:30;;;;;;;10.70;7.28;;;;;;;;;;5024414;28;20032;-75
2023/12/22 04:37:55;;;;;;;7.10;6.32;;;;;;;;;;5023983;28;20104;-76
2023/12/22 04:40:20;;;;;;;9.93;8.88;;;;;;;;;;5003507;28;20116;-77
2023/12/22 04:42:46;;;;;;;12.07;10.00;;;;;;;;;;5023304;28;20076;-77
2023/12/22 04:45:12;;;;;;;9.70;8.63;;;;;;;;;;5023625;28;20106;-76
2023/12/22 04:47:37;;;;;;;11.27;9.05;;;;;;;;;;5011435;28;20030;-78
2023/12/22 04:50:02;;;;;;;8.25;7.20;;;;;;;;;;5000410;28;20120;-78
2023/12/22 04:52:28;;;;;;;8.52;7.65;;;;;;;;;;5000265;28;20174;-76
2023/12/22 04:54:54;;;;;;;6.82;5.90;;;;;;;;;;5002314;28;20120;-77
2023/12/22 04:57:19;;;;;;;11.63;10.52;;;;;;;;;;5007516;28;20029;-76
2023/12/22 04:59:45;;;;;;;6.70;6.00;;;;;;;;;;5023268;28;20037;-76
2023/12/22 05:02:10;;;;;;;19.95;17.65;;;;;;;;;;5000881;28;20467;-77
2023/12/22 05:04:35;;;;;;;24.40;21.80;;;;;;;;;;5020360;28;20162;-76
2023/12/22 05:07:02;;;;;;;38.30;34.15;;;;;;;;;;5005704;28;20179;-76
2023/12/22 05:09:28;;;;;;;26.35;23.65;;;;;;;;;;5006835;28;20045;-76
2023/12/22 05:11:54;;;;;;;13.88;11.07;;;;;;;;;;5020277;28;20150;-76
2023/12/22 05:14:19;;;;;;;15.93;14.43;;;;;;;;;;4996974;28;20037;-76
2023/12/22 05:16:44;;;;;;;19.60;17.70;;;;;;;;;;5023248;28;20041;-76
2023/12/22 05:19:10;;;;;;;13.82;12.38;;;;;;;;;;5022669;28;20041;-75
2023/12/22 05:21:35;;;;;;;20.92;18.73;;;;;;;;;;5007406;28;20032;-76
2023/12/22 05:24:00;;;;;;;9.63;7.72;;;;;;;;;;5007516;28;20433;-76
2023/12/22 05:26:29;;;;;;;8.75;7.95;;;;;;;;;;5017835;28;20024;-76
2023/12/22 05:28:55;;;;;;;8.93;7.13;;;;;;;;;;5008098;28;20024;-77
2023/12/22 05:31:20;;;;;;;10.32;6.97;;;;;;;;;;5006058;28;20026;-75
2023/12/22 05:33:46;;;;;;;10.85;9.20;;;;;;;;;;4988182;28;20164;-76
2023/12/22 05:36:11;;;;;;;15.65;12.65;;;;;;;;;;4992814;28;20083;-77
2023/12/22 05:38:38;;;;;;;9.35;7.82;;;;;;;;;;4990090;28;20868;-76
2023/12/22 05:41:03;;;;;;;9.10;8.02;;;;;;;;;;5005827;28;20029;-77
2023/12/22 05:43:29;;;;;;;10.98;8.80;;;;;;;;;;4991706;28;20060;-76
2023/12/22 05:45:55;;;;;;;9.07;7.75;;;;;;;;;;4991122;28;20029;-77
2023/12/22 05:48:21;;;;;;;9.13;7.63;;;;;;;;;;4986303;28;20029;-76
2023/12/22 05:50:47;;;;;;;9.80;8.85;;;;;;;;;;5003080;28;20112;-77
2023/12/22 05:53:12;;;;;;;10.65;9.30;;;;;;;;;;5020150;28;20051;-78
2023/12/22 05:55:38;;;;;;;15.70;12.45;;;;;;;;;;5006479;28;20506;-78
2023/12/22 05:58:03;;;;;;;13.85;11.23;;;;;;;;;;5019973;28;20057;-79
2023/12/22 06:00:29;;;;;;;22.25;16.50;;;;;;;;;;5020468;28;20137;-77
2023/12/22 06:02:55;;;;;;;23.83;19.42;;;;;;;;;;5008534;28;20032;-78
2023/12/22 06:05:20;;;;;;;21.75;19.13;;;;;;;;;;5020590;28;20044;-78
2023/12/22 06:07:46;;;;;;;24.17;20.90;;;;;;;;;;5008222;28;20445;-77
2023/12/22 06:10:11;;;;;;;29.98;25.80;;;;;;;;;;5021612;28;20031;-77
2023/12/22 06:12:37;;;;;;;32.15;28.67;;;;;;;;;;5021544;28;20029;-77
2023/12/22 06:15:02;;;;;;;47.03;39.75;;;;;;;;;;5020465;28;20033;-78
2023/12/22 06:17:28;;;;;;;13.93;11.40;;;;;;;;;;5007108;28;20057;-76
2023/12/22 06:19:53;;;;;;;21.35;16.55;;;;;;;;;;5022314;28;20032;-76
2023/12/22 06:22:19;;;;;;;29.75;25.90;;;;;;;;;;5021615;28;20068;-74
2023/12/22 06:24:44;;;;;;;34.78;31.33;;;;;;;;;;5014360;28;20445;-75
2023/12/22 06:27:10;;;;;;;20.85;18.65;;;;;;;;;;5015130;28;20030;-77
2023/12/22 06:29:35;;;;;;;80.15;67.32;;;;;;;;;;5011778;28;20330;-75
2023/12/22 06:32:01;;;;;;;37.65;32.38;;;;;;;;;;5010177;28;20025;-79
2023/12/22 06:34:26;;;;;;;17.90;16.10;;;;;;;;;;5021849;28;20049;-76
2023/12/22 06:36:52;;;;;;;17.88;15.75;;;;;;;;;;5021675;28;20064;-77
2023/12/22 06:39:19;;;;;;;23.10;20.58;;;;;;;;;;5005592;28;20472;-72
2023/12/22 06:41:44;;;;;;;30.27;27.25;;;;;;;;;;5021142;28;20423;-74
2023/12/22 06:44:10;;;;;;;23.52;21.05;;;;;;;;;;5020906;28;20120;-76
2023/12/22 06:46:36;;;;;;;24.60;20.20;;;;;;;;;;5022000;28;20120;-76
2023/12/22 06:49:01;;;;;;;34.05;30.55;;;;;;;;;;5021912;28;20021;-75
2023/12/22 06:51:27;;;;;;;24.10;20.98;;;;;;;;;;5022073;28;20057;-75
2023/12/22 06:53:54;;;;;;;72.38;53.28;;;;;;;;;;5020323;28;20029;-75
2023/12/22 06:56:26;;;;;;;92.85;72.22;;;;;;;;;;5022115;28;20029;-77
2023/12/22 06:58:52;;;;;;;45.78;38.17;;;;;;;;;;5021284;28;20025;-79
2023/12/22 07:01:20;;;;;;;41.33;35.45;;;;;;;;;;5015176;28;20357;-78
2023/12/22 07:03:45;;;;;;;72.88;57.55;;;;;;;;;;5007267;28;20039;-75
2023/12/22 07:06:11;;;;;;;107.10;83.28;;;;;;;;;;5006106;28;20021;-76
2023/12/22 07:08:36;;;;;;;63.90;46.15;;;;;;;;;;5006710;28;20099;-75
2023/12/22 07:11:02;;;;;;;70.00;51.78;;;;;;;;;;5006741;28;20053;-77
2023/12/22 07:13:27;;;;;;;20.80;17.67;;;;;;;;;;5015963;28;20095;-77
2023/12/22 07:15:52;;;;;;;12.82;11.50;;;;;;;;;;5020867;28;20021;-75
2023/12/22 07:18:18;;;;;;;21.67;18.73;;;;;;;;;;5021460;28;20029;-75
2023/12/22 07:20:43;;;;;;;18.30;16.50;;;;;;;;;;5018966;28;20022;-76
2023/12/22 07:23:10;;;;;;;42.55;38.20;;;;;;;;;;5020647;28;20025;-76
2023/12/22 07:25:36;;;;;;;24.50;22.10;;;;;;;;;;5021118;28;20109;-75
2023/12/22 07:28:01;;;;;;;296.23;264.60;;;;;;;;;;5021786;28;20018;-75
2023/12/22 07:30:27;;;;;;;80.35;68.63;;;;;;;;;;5019092;28;20088;-76
2023/12/22 07:32:53;;;;;;;38.65;34.60;;;;;;;;;;5019813;28;20025;-75
2023/12/22 07:35:19;;;;;;;32.92;29.63;;;;;;;;;;5019846;28;20037;-79
2023/12/22 07:37:44;;;;;;;23.67;21.35;;;;;;;;;;5020752;28;20029;-75
2023/12/22 07:40:09;;;;;;;35.13;31.52;;;;;;;;;;5021020;28;20064;-75
2023/12/22 07:42:36;;;;;;;38.33;34.60;;;;;;;;;;5020123;28;20388;-76
2023/12/22 07:45:03;;;;;;;41.67;36.88;;;;;;;;;;5019778;28;20029;-76
2023/12/22 07:47:28;;;;;;;32.55;29.23;;;;;;;;;;5007620;28;20092;-76
2023/12/22 07:49:53;;;;;;;67.30;60.22;;;;;;;;;;5017663;28;20366;-76
2023/12/22 07:52:19;;;;;;;65.75;52.45;;;;;;;;;;5021044;28;20060;-78
2023/12/22 07:54:44;;;;;;;64.07;51.42;;;;;;;;;;5021669;28;20476;-77
2023/12/22 07:57:10;;;;;;;63.80;56.63;;;;;;;;;;5025156;28;20433;-75
2023/12/22 07:59:35;;;;;;;52.28;46.85;;;;;;;;;;5024429;28;20350;-76
2023/12/22 08:02:00;;;;;;;55.50;50.20;;;;;;;;;;5024816;28;20037;-77
2023/12/22 08:04:26;;;;;;;38.60;34.67;;;;;;;;;;5023173;28;20045;-76
2023/12/22 08:06:52;;;;;;;86.00;76.93;;;;;;;;;;5024203;28;20366;-76
2023/12/22 08:09:17;;;;;;;57.50;51.45;;;;;;;;;;5016372;28;20049;-75
2023/12/22 08:11:46;;;;;;;31.23;27.95;;;;;;;;;;5014278;28;20091;-75
2023/12/22 08:14:11;;;;;;;54.97;49.47;;;;;;;;;;5016420;28;20026;-75
2023/12/22 08:16:37;;;;;;;41.80;37.63;;;;;;;;;;5009368;28;20083;-76
2023/12/22 08:19:02;;;;;;;78.03;67.10;;;;;;;;;;5009301;28;20075;-75
2023/12/22 08:21:27;;;;;;;209.85;157.88;;;;;;;;;;5018697;28;20025;-76
2023/12/22 08:23:53;;;;;;;34.97;29.60;;;;;;;;;;5023268;28;20037;-75
2023/12/22 08:26:19;;;;;;;49.17;43.67;;;;;;;;;;5023801;28;20349;-75
2023/12/22 08:28:44;;;;;;;66.28;53.92;;;;;;;;;;5022710;28;20064;-75
2023/12/22 08:31:10;;;;;;;101.97;90.88;;;;;;;;;;5012667;28;20057;-77
2023/12/22 08:33:36;;;;;;;54.92;49.08;;;;;;;;;;5017623;28;20120;-78
2023/12/22 08:36:01;;;;;;;51.17;43.38;;;;;;;;;;5015127;28;20365;-78
2023/12/22 08:38:27;;;;;;;87.78;63.70;;;;;;;;;;5012788;28;20044;-76
2023/12/22 08:40:53;;;;;;;48.03;41.53;;;;;;;;;;5021090;28;20395;-76
2023/12/22 08:43:19;;;;;;;182.18;100.80;;;;;;;;;;5022309;28;20020;-75
2023/12/22 08:45:44;;;;;;;79.10;49.53;;;;;;;;;;5023447;28;20045;-76
2023/12/22 08:48:10;;;;;;;244.75;97.30;;;;;;;;;;5023149;28;20020;-77
2023/12/22 08:50:36;;;;;;;127.32;69.55;;;;;;;;;;5015542;28;20022;-75
2023/12/22 08:53:01;;;;;;;273.45;139.85;;;;;;;;;;5009591;28;20029;-76
2023/12/22 08:55:26;;;;;;;163.88;96.47;;;;;;;;;;5009791;28;20025;-75
2023/12/22 08:57:52;;;;;;;65.03;49.70;;;;;;;;;;5010243;28;20406;-78
2023/12/22 09:00:18;;;;;;;58.95;45.60;;;;;;;;;;5009349;28;20025;-76
2023/12/22 09:02:44;;;;;;;109.00;86.22;;;;;;;;;;5009128;28;20123;-77
2023/12/22 09:05:09;;;;;;;97.18;77.20;;;;;;;;;;5008618;28;20026;-77
2023/12/22 09:07:35;;;;;;;184.68;165.00;;;;;;;;;;5007841;28;20365;-78
2023/12/22 09:10:00;;;;;;;73.57;65.25;;;;;;;;;;5008333;28;20053;-78
2023/12/22 09:12:25;;;;;;;86.80;61.78;;;;;;;;;;4996109;28;20117;-77
2023/12/22 09:14:51;;;;;;;117.78;97.30;;;;;;;;;;5008551;28;20036;-79
2023/12/22 09:17:16;;;;;;;121.63;97.25;;;;;;;;;;5009325;28;20124;-75
2023/12/22 09:19:42;;;;;;;133.82;98.25;;;;;;;;;;5008813;28;20099;-77
2023/12/22 09:22:12;;;;;;;147.50;113.47;;;;;;;;;;5007399;28;20443;-77
2023/12/22 09:24:38;;;;;;;77.45;67.45;;;;;;;;;;5008919;28;20036;-78
2023/12/22 09:27:04;;;;;;;59.10;51.92;;;;;;;;;;5007140;28;20034;-77
2023/12/22 09:29:31;;;;;;;31.83;28.58;;;;;;;;;;5009918;28;20040;-79
2023/12/22 09:31:56;;;;;;;23.08;20.88;;;;;;;;;;5009957;28;20044;-79
2023/12/22 09:34:22;;;;;;;23.58;21.25;;;;;;;;;;5008113;28;20045;-78
2023/12/22 09:36:48;;;;;;;16.27;14.77;;;;;;;;;;5009013;28;20120;-80
2023/12/22 09:39:16;;;;;;;11.65;10.48;;;;;;;;;;5008566;28;20033;-77
2023/12/22 09:41:45;;;;;;;10.32;7.90;;;;;;;;;;5009082;28;20453;-78
2023/12/22 09:44:12;;;;;;;5.75;5.25;;;;;;;;;;5008816;28;20037;-77
2023/12/22 09:46:38;;;;;;;21.02;17.20;;;;;;;;;;5002117;28;20040;-80
2023/12/22 09:49:04;;;;;;;17.98;15.13;;;;;;;;;;5008165;28;20029;-81
2023/12/22 09:51:30;;;;;;;28.73;25.45;;;;;;;;;;5009017;28;20226;-78
2023/12/22 09:53:56;;;;;;;17.52;15.73;;;;;;;;;;4996761;28;20026;-78
2023/12/22 09:56:23;;;;;;;8.57;7.78;;;;;;;;;;5008491;28;20025;-77
2023/12/22 09:58:51;;;;;;;12.10;9.20;;;;;;;;;;5008811;28;20581;-77
2023/12/22 10:01:21;;;;;;;24.52;17.80;;;;;;;;;;5006315;28;20026;-77
2023/12/22 10:03:46;;;;;;;37.47;29.10;;;;;;;;;;5005762;28;20033;-78
2023/12/22 10:06:12;;;;;;;21.48;17.98;;;;;;;;;;5007824;28;20029;-79
2023/12/22 10:08:37;;;;;;;11.52;8.88;;;;;;;;;;5007731;28;20041;-82
2023/12/22 10:11:04;;;;;;;12.98;11.68;;;;;;;;;;5005775;28;20029;-78
2023/12/22 10:13:31;;;;;;;14.43;12.05;;;;;;;;;;5007915;28;20034;-80
2023/12/22 10:15:56;;;;;;;7.65;6.57;;;;;;;;;;5005821;28;20120;-80
2023/12/22 10:18:22;;;;;;;9.18;8.02;;;;;;;;;;5007070;28;20120;-80
2023/12/22 10:20:48;;;;;;;17.13;14.40;;;;;;;;;;5006155;28;20071;-81
2023/12/22 10:23:13;;;;;;;10.77;9.68;;;;;;;;;;5007791;28;20055;-79
2023/12/22 10:25:40;;;;;;;14.35;12.60;;;;;;;;;;5005872;28;20519;-81
2023/12/22 10:28:09;;;;;;;17.17;13.45;;;;;;;;;;5004726;28;20120;-78
2023/12/22 10:30:35;;;;;;;10.85;9.75;;;;;;;;;;5005940;28;20331;-79
2023/12/22 10:33:03;;;;;;;10.50;9.40;;;;;;;;;;5007497;28;20044;-78
2023/12/22 10:35:28;;;;;;;11.00;9.90;;;;;;;;;;5007262;28;20033;-78
2023/12/22 10:37:55;;;;;;;8.30;7.45;;;;;;;;;;5005788;28;20086;-77
2023/12/22 10:40:22;;;;;;;10.63;9.60;;;;;;;;;;5008512;28;20025;-79
2023/12/22 10:42:48;;;;;;;10.63;9.52;;;;;;;;;;5006779;28;20017;-77
2023/12/22 10:45:15;;;;;;;10.52;9.52;;;;;;;;;;5007065;28;20094;-80
2023/12/22 10:47:40;;;;;;;13.95;12.55;;;;;;;;;;5007888;28;20026;-79
2023/12/22 10:50:06;;;;;;;11.45;10.38;;;;;;;;;;5006252;28;20036;-79
2023/12/22 10:52:31;;;;;;;12.00;10.80;;;;;;;;;;5006721;28;20384;-78
2023/12/22 10:54:57;;;;;;;20.70;17.88;;;;;;;;;;5007680;28;20544;-78
2023/12/22 10:57:22;;;;;;;41.35;27.17;;;;;;;;;;5008306;28;20025;-79
2023/12/22 10:59:48;;;;;;;25.83;20.17;;;;;;;;;;5016928;28;20338;-80
2023/12/22 11:02:20;;;;;;;13.38;10.48;;;;;;;;;;5015093;28;20040;-78
2023/12/22 11:04:55;;;;;;;14.98;13.65;;;;;;;;;;5021481;28;20437;-78
2023/12/22 11:07:22;;;;;;;11.77;10.77;;;;;;;;;;5021030;28;20440;-75
2023/12/22 11:09:50;;;;;;;6.90;5.38;;;;;;;;;;5016838;28;20056;-77
2023/12/22 11:12:17;;;;;;;14.25;12.85;;;;;;;;;;5006471;28;20034;-75
2023/12/22 11:14:44;;;;;;;32.15;28.73;;;;;;;;;;5020268;28;20057;-76
2023/12/22 11:17:10;;;;;;;26.23;22.33;;;;;;;;;;5018853;28;20124;-75
2023/12/22 11:19:36;;;;;;;33.90;26.83;;;;;;;;;;5020458;28;20435;-76
2023/12/22 11:22:04;;;;;;;28.30;24.00;;;;;;;;;;5021093;28;20057;-76
2023/12/22 11:24:29;;;;;;;18.60;16.60;;;;;;;;;;5020655;28;20029;-77
2023/12/22 11:26:57;;;;;;;27.73;23.73;;;;;;;;;;5020300;28;20078;-75
2023/12/22 11:29:24;;;;;;;29.48;21.48;;;;;;;;;;5023206;28;20052;-77
2023/12/22 11:31:49;;;;;;;26.65;22.10;;;;;;;;;;5023479;28;20056;-76
2023/12/22 11:34:16;;;;;;;23.67;19.92;;;;;;;;;;5025583;28;20500;-77
2023/12/22 11:36:43;;;;;;;24.05;21.15;;;;;;;;;;5025667;28;20064;-78
2023/12/22 11:39:09;;;;;;;20.77;17.50;;;;;;;;;;5023807;28;20036;-79
2023/12/22 11:41:35;;;;;;;25.25;21.20;;;;;;;;;;5024908;28;20030;-75
2023/12/22 11:44:04;;;;;;;26.85;23.77;;;;;;;;;;5011017;28;20033;-76
2023/12/22 11:46:30;;;;;;;46.65;38.08;;;;;;;;;;5025045;28;20024;-76
2023/12/22 11:48:56;;;;;;;124.95;112.40;;;;;;;;;;5008637;28;20449;-77
2023/12/22 11:51:21;;;;;;;20.80;18.73;;;;;;;;;;5025116;28;20029;-77
2023/12/22 11:53:47;;;;;;;22.17;20.25;;;;;;;;;;5009654;28;20044;-76
2023/12/22 11:56:13;;;;;;;11.48;10.38;;;;;;;;;;5019587;28;20029;-75
2023/12/22 11:58:41;;;;;;;14.07;12.73;;;;;;;;;;5018551;28;20033;-75
2023/12/22 12:01:13;;;;;;;14.38;12.60;;;;;;;;;;5019433;28;20112;-75
2023/12/22 12:03:42;;;;;;;8.55;7.75;;;;;;;;;;5009968;28;20333;-74
2023/12/22 12:06:08;;;;;;;;;;;;;;;;;;5014990;28;20044;-74
2023/12/22 12:08:33;;;;;;;50.87;37.97;;;;;;;;;;5022018;28;19968;-75
2023/12/22 12:11:00;;;;;;;24.48;21.70;;;;;;;;;;5023104;28;20449;-76
2023/12/22 12:13:27;;;;;;;19.25;16.20;;;;;;;;;;5013312;28;20017;-75
2023/12/22 12:15:54;;;;;;;23.27;17.83;;;;;;;;;;5010197;28;20456;-75
2023/12/22 12:18:21;;;;;;;29.92;22.08;;;;;;;;;;5013942;28;20083;-74
2023/12/22 12:20:47;;;;;;;23.17;18.75;;;;;;;;;;5023896;28;20353;-74
2023/12/22 12:23:12;;;;;;;20.40;15.57;;;;;;;;;;5023398;28;20038;-75
2023/12/22 12:25:37;;;;;;;21.15;16.98;;;;;;;;;;5013955;28;20101;-77
2023/12/22 12:28:03;;;;;;;21.05;14.50;;;;;;;;;;5022764;28;20021;-77
2023/12/22 12:30:28;;;;;;;18.17;15.70;;;;;;;;;;5024517;28;20036;-76
2023/12/22 12:32:54;;;;;;;19.95;17.30;;;;;;;;;;5023453;28;20401;-76
2023/12/22 12:35:19;;;;;;;20.77;18.30;;;;;;;;;;5011473;28;20042;-77
2023/12/22 12:37:45;;;;;;;22.42;20.02;;;;;;;;;;5023509;28;20044;-77
2023/12/22 12:40:11;;;;;;;15.00;13.02;;;;;;;;;;5023318;28;20112;-76
2023/12/22 12:42:37;;;;;;;13.07;11.65;;;;;;;;;;5013387;28;20255;-76
2023/12/22 12:45:07;;;;;;;14.80;12.93;;;;;;;;;;5019097;28;20156;-76
2023/12/22 12:47:32;;;;;;;12.25;11.05;;;;;;;;;;5022256;28;20065;-76
2023/12/22 12:49:59;;;;;;;17.67;14.82;;;;;;;;;;5023894;28;20069;-76
2023/12/22 12:52:25;;;;;;;23.98;21.05;;;;;;;;;;5023465;28;20033;-76
2023/12/22 12:54:50;;;;;;;18.08;16.13;;;;;;;;;;5023904;28;20045;-75
2023/12/22 12:57:16;;;;;;;19.40;17.50;;;;;;;;;;5023156;28;21044;-77
2023/12/22 12:59:44;;;;;;;25.58;23.00;;;;;;;;;;5023774;28;20033;-76
2023/12/22 13:02:10;;;;;;;41.00;36.10;;;;;;;;;;5023171;28;20890;-75
2023/12/22 13:04:38;;;;;;;34.65;29.70;;;;;;;;;;5023760;28;20041;-76
2023/12/22 13:07:04;;;;;;;68.18;50.47;;;;;;;;;;5023132;28;20025;-75
2023/12/22 13:09:34;;;;;;;22.77;20.40;;;;;;;;;;5023693;28;20053;-80
2023/12/22 13:11:59;;;;;;;15.80;14.20;;;;;;;;;;5022789;28;20032;-74
2023/12/22 13:14:25;;;;;;;22.80;20.50;;;;;;;;;;5023315;28;20037;-76
2023/12/22 13:16:50;;;;;;;14.57;12.98;;;;;;;;;;5023214;28;20507;-74
2023/12/22 13:19:16;;;;;;;13.82;11.93;;;;;;;;;;5022810;28;20025;-75
2023/12/22 13:21:41;;;;;;;15.82;13.85;;;;;;;;;;5023510;28;20503;-77
2023/12/22 13:24:14;;;;;;;9.35;8.45;;;;;;;;;;5022438;28;20021;-76
2023/12/22 13:26:40;;;;;;;9.93;8.93;;;;;;;;;;5022401;28;20036;-76
2023/12/22 13:29:05;;;;;;;17.63;15.88;;;;;;;;;;5023399;28;20025;-76
2023/12/22 13:31:36;;;;;;;25.88;23.10;;;;;;;;;;5022659;28;20112;-74
2023/12/22 13:34:01;;;;;;;20.83;18.83;;;;;;;;;;5023390;28;20037;-77
2023/12/22 13:36:27;;;;;;;54.95;49.15;;;;;;;;;;5022279;28;20448;-74
2023/12/22 13:38:52;;;;;;;28.98;26.23;;;;;;;;;;5023922;28;20108;-75
2023/12/22 13:41:18;;;;;;;25.88;23.35;;;;;;;;;;5023101;28;20107;-75
2023/12/22 13:43:46;;;;;;;36.75;33.47;;;;;;;;;;5009954;28;20037;-74
2023/12/22 13:46:15;;;;;;;111.93;100.03;;;;;;;;;;5020672;28;20013;-76
2023/12/22 13:48:40;;;;;;;59.93;53.40;;;;;;;;;;5022691;28;20040;-75
2023/12/22 13:51:06;;;;;;;39.25;35.03;;;;;;;;;;5022253;28;20025;-74
2023/12/22 13:53:31;;;;;;;28.95;25.23;;;;;;;;;;5008738;28;20048;-76
2023/12/22 13:55:57;;;;;;;29.92;25.50;;;;;;;;;;5001788;28;20051;-76
2023/12/22 13:58:23;;;;;;;24.45;20.60;;;;;;;;;;5021864;28;20059;-75
2023/12/22 14:00:48;;;;;;;35.40;27.52;;;;;;;;;;5022289;28;20352;-75
2023/12/22 14:03:16;;;;;;;39.80;35.17;;;;;;;;;;5021735;28;20033;-75
2023/12/22 14:05:42;;;;;;;32.47;29.15;;;;;;;;;;5021258;28;20139;-76
2023/12/22 14:08:07;;;;;;;28.20;25.50;;;;;;;;;;5019557;28;20265;-76
2023/12/22 14:10:33;;;;;;;26.65;23.83;;;;;;;;;;5010801;28;20147;-75
2023/12/22 14:12:58;;;;;;;27.90;25.02;;;;;;;;;;5006484;28;20030;-75